Latest Weather Observations for Shay Gap

IDW60801

Issued at 5:35 am WST Wednesday 17 September 2014 (issued every 30 minutes, with the page automatically refreshed every 10 minutes)

About weather observations | Map of weather stations | Latest weather observations for WA | Other Formats
Station Details ID: 504045 Name: SHAY GAP Lat: -20.43 Lon: 120.13 Height: 173.83 m
Data from the previous 72 hours. | See also: Recent months for locations in Western Australia
Date/Time
WST
Temp
°C
App
Temp
°C
Dew
Point
Rel
Hum
%
Delta-T
°C
Wind Press
QNH
hPa
Press
MSL
hPa
Rain
since 9 am
mm
Dir
 
Spd
km/h
Gust
km/h
Spd
kts
Gust
kts
17/05:30am 16.3 17.9 14.8 91 0.9 WSW 0 0 0 0 1012.7 1011.8 0.2
17/05:00am 18.6 21.0 16.9 90 1.0 WSW 0 0 0 0 1012.4 1011.5 0.2
17/04:30am 18.5 20.1 17.8 96 0.4 WSW 6 7 3 4 1012.1 1011.2 0.0
17/04:14am 17.7 18.2 17.4 98 0.2 W 11 13 6 7 1011.8 1010.9 0.0
17/04:02am 16.9 17.3 16.4 97 0.3 W 9 13 5 7 1011.8 1010.9 0.0
17/04:00am 16.7 17.0 16.1 96 0.4 W 9 11 5 6 1011.8 1010.9 0.0
17/03:30am 17.1 18.9 16.5 96 0.4 ENE 2 6 1 3 1012.0 1011.1 0.0
17/03:00am 18.6 20.7 18.1 97 0.3 NNE 4 6 2 3 1012.1 1011.2 0.0
17/02:30am 19.1 22.2 18.6 97 0.3 CALM 0 6 0 3 1012.2 1011.3 0.0
17/02:00am 18.9 21.8 18.2 96 0.4 CALM 0 0 0 0 1012.3 1011.4 0.0
17/01:30am 19.6 21.7 18.9 96 0.4 NNE 6 11 3 6 1012.4 1011.5 0.0
17/01:26am 19.8 21.8 19.1 96 0.4 NNE 7 11 4 6 1012.5 1011.6 0.0
17/01:09am 20.3 22.1 19.5 95 0.5 N 9 11 5 6 1012.6 1011.7 0.0
17/01:00am 20.9 23.0 20.1 95 0.5 WNW 9 11 5 6 1012.6 1011.7 0.0
17/12:30am 21.0 24.1 20.2 95 0.5 W 4 7 2 4 1012.9 1012.0 0.0
17/12:00am 21.1 23.6 20.3 95 0.5 NW 7 9 4 5 1013.1 1012.2 0.0
 
Date/Time
WST
Temp
°C
App
Temp
°C
Dew
Point
Rel
Hum
%
Delta-T
°C
Wind Press
QNH
hPa
Press
MSL
hPa
Rain
since 9 am
mm
Dir
 
Spd
km/h
Gust
km/h
Spd
kts
Gust
kts
16/11:30pm 21.1 22.9 20.4 96 0.5 W 11 13 6 7 1013.1 1012.2 0.0
16/11:00pm 21.5 24.2 20.7 95 0.5 WNW 7 9 4 5 1013.3 1012.4 0.0
16/10:30pm 21.4 23.3 20.6 95 0.5 WNW 11 15 6 8 1013.1 1012.2 0.0
16/10:00pm 21.6 23.9 20.6 94 0.7 NW 9 15 5 8 1013.3 1012.4 0.0
16/09:30pm 22.1 23.8 20.9 93 0.8 NW 13 17 7 9 1013.2 1012.3 0.0
16/09:00pm 22.3 23.8 19.8 86 1.6 NNW 11 15 6 8 1013.1 1012.2 0.0
16/08:30pm 23.1 24.1 19.5 80 2.3 NW 13 19 7 10 1013.0 1012.1 0.0
16/08:00pm 23.9 25.7 19.6 77 2.8 N 9 13 5 7 1012.7 1011.8 0.0
16/07:30pm 24.8 25.1 18.7 69 3.9 NNW 15 19 8 10 1012.3 1011.4 0.0
16/07:00pm 26.2 25.3 17.8 60 5.3 NW 19 24 10 13 1011.8 1010.9 0.0
16/06:30pm 28.1 26.2 15.1 45 8.0 NW 19 24 10 13 1011.4 1010.5 0.0
16/06:00pm 30.3 27.3 12.7 34 10.5 NW 20 26 11 14 1011.0 1010.1 0.0
16/05:30pm 32.7 27.9 8.9 23 13.5 NW 24 32 13 17 1010.6 1009.7 0.0
16/05:00pm 34.5 28.6 4.1 15 16.1 NW 24 39 13 21 1010.4 1009.5 0.0
16/04:30pm 35.5 30.2 2.9 13 17.0 NW 20 32 11 17 1010.2 1009.3 0.0
16/04:00pm 35.9 30.3 3.2 13 17.2 N 22 30 12 16 1009.9 1009.0 0.0
16/03:30pm 35.8 31.5 3.1 13 17.2 N 15 26 8 14 1009.6 1008.7 0.0
16/03:00pm 35.6 31.2 0.6 11 17.7 N 13 19 7 10 1009.8 1008.9 0.0
16/02:30pm 36.1 30.5 -0.3 10 18.1 E 19 30 10 16 1009.9 1009.0 0.0
16/02:00pm 36.6 30.8 0.1 10 18.4 N 20 30 11 16 1010.2 1009.3 0.0
16/01:30pm 36.8 32.2 1.5 11 18.2 NNE 15 26 8 14 1010.5 1009.6 0.0
16/01:00pm 35.8 32.2 0.8 11 17.7 ENE 9 17 5 9 1011.0 1010.1 0.0
16/12:30pm 35.5 31.5 0.6 11 17.6 NNE 11 17 6 9 1011.5 1010.6 0.0
16/12:00pm 34.8 33.0 7.8 19 15.2 SSW 7 15 4 8 1011.9 1011.0 0.0
16/11:30am 34.6 31.8 6.8 18 15.4 NW 11 17 6 9 1012.3 1011.4 0.0
16/11:00am 32.9 30.9 7.0 20 14.3 NW 7 13 4 7 1013.0 1012.1 0.0
16/10:30am 32.5 30.9 8.0 22 13.7 NW 6 13 3 7 1013.2 1012.3 0.0
16/10:00am 31.3 30.2 10.1 27 12.2 SSW 6 9 3 5 1013.4 1012.5 0.0
16/09:30am 30.1 29.7 12.5 34 10.4 E 6 9 3 5 1013.8 1012.9 0.0
16/09:00am 27.0 28.1 18.0 58 5.7 ENE 9 15 5 8 1013.9 1013.0 0.0
16/08:30am 24.6 26.6 19.9 75 3.1 ENE 9 13 5 7 1014.0 1013.1 0.0
16/08:07am 22.8 24.9 20.1 85 1.8 ENE 9 15 5 8 1014.1 1013.2 0.0
16/08:02am 22.3 24.8 20.2 88 1.4 ENE 7 11 4 6 1014.0 1013.1 0.0
16/08:00am 21.9 24.3 20.0 89 1.2 NE 7 11 4 6 1014.0 1013.1 0.0
16/07:35am 20.2 21.5 19.4 95 0.5 NE 11 17 6 9 1013.8 1012.9 0.0
16/07:30am 20.2 21.9 19.4 95 0.5 NE 9 13 5 7 1013.8 1012.9 0.0
16/07:28am 20.1 21.8 19.3 95 0.5 NE 9 13 5 7 1013.7 1012.8 0.0
16/07:11am 20.4 22.0 19.9 97 0.3 NE 11 13 6 7 1013.6 1012.7 0.0
16/07:07am 20.2 22.2 19.9 98 0.2 NE 9 13 5 7 1013.6 1012.7 0.0
16/07:00am 19.8 21.6 19.6 99 0.1 NE 9 13 5 7 1013.5 1012.6 0.0
16/06:34am 18.8 18.6 18.6 99 0.1 ENE 17 20 9 11 1013.2 1012.3 0.0
16/06:30am 18.4 17.7 18.2 99 0.1 ENE 19 20 10 11 1013.2 1012.3 0.0
16/06:29am 18.3 17.5 18.1 99 0.1 ENE 19 20 10 11 1013.2 1012.3 0.0
16/06:00am 18.2 20.6 18.0 99 0.1 W 2 6 1 3 1012.5 1011.6 0.0
16/05:30am 18.8 21.5 18.6 99 0.1 W 2 6 1 3 1012.5 1011.6 0.0
16/05:00am 19.4 21.6 19.2 99 0.1 W 6 7 3 4 1012.4 1011.5 0.0
16/04:30am 19.6 21.8 19.3 98 0.2 W 6 7 3 4 1012.1 1011.2 0.0
16/04:00am 19.9 22.2 19.4 97 0.3 WSW 6 7 3 4 1011.8 1010.9 0.0
16/03:57am 20.0 22.3 19.5 97 0.3 WSW 6 7 3 4 1011.7 1010.8 0.0
16/03:55am 20.1 22.5 19.6 97 0.3 WSW 6 7 3 4 1011.7 1010.8 0.0
16/03:30am 20.1 22.5 19.6 97 0.3 WSW 6 7 3 4 1011.7 1010.8 0.0
16/03:18am 20.2 22.4 19.7 97 0.3 WSW 7 9 4 5 1011.6 1010.7 0.0
16/03:11am 20.5 22.9 20.0 97 0.3 WSW 7 9 4 5 1011.6 1010.7 0.0
16/03:00am 20.5 23.0 19.8 96 0.4 SW 6 7 3 4 1011.7 1010.8 0.0
16/02:44am 20.4 22.6 19.7 96 0.4 W 7 9 4 5 1011.7 1010.8 0.0
16/02:30am 21.2 23.5 20.7 97 0.3 W 9 13 5 7 1011.7 1010.8 0.0
16/02:19am 21.4 23.8 20.9 97 0.3 WSW 9 11 5 6 1011.8 1010.9 0.0
16/02:00am 21.8 24.2 21.5 98 0.2 WSW 11 17 6 9 1011.9 1011.0 0.0
16/01:42am 21.6 23.4 21.1 97 0.3 W 13 17 7 9 1011.9 1011.0 0.0
16/01:39am 21.6 23.4 21.1 97 0.3 W 13 17 7 9 1012.0 1011.1 0.0
16/01:30am 21.6 23.7 20.9 96 0.5 W 11 15 6 8 1012.1 1011.2 0.0
16/01:00am 21.8 23.8 20.8 94 0.7 WSW 11 15 6 8 1012.3 1011.4 0.0
16/12:30am 21.7 23.4 20.2 91 1.0 WSW 11 13 6 7 1012.5 1011.6 0.0
16/12:00am 21.4 22.9 19.7 90 1.1 SW 11 11 6 6 1012.7 1011.8 0.0
 
Date/Time
WST
Temp
°C
App
Temp
°C
Dew
Point
Rel
Hum
%
Delta-T
°C
Wind Press
QNH
hPa
Press
MSL
hPa
Rain
since 9 am
mm
Dir
 
Spd
km/h
Gust
km/h
Spd
kts
Gust
kts
15/11:30pm 22.2 23.9 20.1 88 1.4 WSW 11 13 6 7 1013.1 1012.2 0.0
15/11:00pm 22.7 24.4 20.2 86 1.6 WSW 11 15 6 8 1013.3 1012.4 0.0
15/10:30pm 21.9 23.0 17.9 78 2.5 WSW 9 13 5 7 1013.4 1012.5 0.0
15/10:00pm 22.1 23.6 18.1 78 2.5 WSW 7 9 4 5 1013.4 1012.5 0.0
15/09:30pm 22.4 23.6 18.2 77 2.6 WNW 9 11 5 6 1013.3 1012.4 0.0
15/09:00pm 22.8 23.4 17.7 73 3.2 NW 11 13 6 7 1013.3 1012.4 0.0
15/08:30pm 23.6 24.1 16.6 65 4.3 NNW 9 13 5 7 1013.3 1012.4 0.0
15/08:00pm 24.3 25.1 16.3 61 4.9 NW 7 9 4 5 1013.2 1012.3 0.0
15/07:30pm 25.1 24.9 15.7 56 5.7 NNW 11 13 6 7 1012.8 1011.9 0.0
15/07:00pm 26.3 26.4 15.4 51 6.7 NNW 9 13 5 7 1012.6 1011.7 0.0
15/06:30pm 27.6 25.9 13.5 41 8.4 NNW 15 20 8 11 1012.2 1011.3 0.0
15/06:00pm 29.4 26.5 11.0 32 10.6 N 17 22 9 12 1011.8 1010.9 0.0
15/05:30pm 31.3 26.5 8.9 25 12.6 N 24 30 13 16 1011.5 1010.6 0.0
15/05:00pm 32.3 26.3 8.5 23 13.4 N 30 41 16 22 1011.4 1010.5 0.0
15/04:30pm 33.8 27.4 8.4 21 14.4 N 32 39 17 21 1011.2 1010.3 0.0
15/04:00pm 34.2 27.0 5.7 17 15.5 N 33 43 18 23 1011.1 1010.2 0.0
15/03:30pm 34.8 26.3 5.3 16 16.0 N 39 50 21 27 1011.1 1010.2 0.0
15/03:00pm 35.2 27.4 6.5 17 15.9 N 37 48 20 26 1011.0 1010.1 0.0
15/02:30pm 36.0 27.5 5.3 15 16.7 N 39 48 21 26 1011.0 1010.1 0.0
15/02:00pm 36.6 28.0 2.6 12 17.8 N 37 50 20 27 1011.0 1010.1 0.0
15/01:38pm 36.5 28.7 4.7 14 17.2 N 35 56 19 30 1011.1 1010.2 0.0
15/01:30pm 36.8 30.3 4.9 14 17.3 N 28 41 15 22 1011.2 1010.3 0.0
15/01:00pm 38.2 32.6 1.3 10 19.1 NE 20 32 11 17 1011.5 1010.6 0.0
15/12:30pm 37.4 30.2 0.7 10 18.7 NE 28 35 15 19 1011.8 1010.9 0.0
15/12:00pm 36.9 30.6 1.6 11 18.2 ENE 24 35 13 19 1012.1 1011.2 0.0
15/11:30am 36.9 31.4 1.6 11 18.2 NE 20 37 11 20 1012.6 1011.7 0.0
15/11:00am 36.8 30.7 2.8 12 17.9 NE 24 32 13 17 1013.1 1012.2 0.0
15/10:30am 36.1 31.1 6.3 16 16.5 ENE 22 37 12 20 1013.4 1012.5 0.0
15/10:00am 35.0 31.5 8.7 20 15.0 E 17 24 9 13 1013.7 1012.8 0.0
15/09:30am 32.6 29.2 6.0 19 14.4 ESE 13 17 7 9 1013.8 1012.9 0.0
15/09:00am 31.0 28.2 6.8 22 13.1 ESE 11 17 6 9 1013.9 1013.0 0.0
15/08:30am 28.3 26.0 7.5 27 11.3 SSE 9 15 5 8 1013.9 1013.0 0.0
15/08:00am 26.4 23.8 7.9 31 10.0 SE 11 13 6 7 1013.8 1012.9 0.0
15/07:30am 24.4 21.4 7.5 34 9.0 SSE 13 17 7 9 1013.5 1012.6 0.0
15/07:00am 21.5 18.7 8.4 43 6.9 SSE 13 15 7 8 1013.3 1012.4 0.0
15/06:30am 19.3 16.1 6.8 44 6.3 SSE 13 17 7 9 1013.0 1012.1 0.0
15/06:00am 18.3 15.0 6.2 45 6.0 SSE 13 15 7 8 1012.8 1011.9 0.0
15/05:30am 17.7 14.3 5.9 46 5.8 SSE 13 15 7 8 1012.6 1011.7 0.0
15/05:00am 17.9 15.2 5.8 45 6.0 SE 9 13 5 7 1012.5 1011.6 0.0
15/04:30am 19.6 18.3 6.0 41 6.8 N 2 9 1 5 1012.3 1011.4 0.0
15/04:00am 19.5 17.3 5.2 39 7.0 N 6 7 3 4 1012.0 1011.1 0.0
15/03:30am 20.6 17.7 4.6 35 7.8 N 9 11 5 6 1012.0 1011.1 0.0
15/03:00am 21.0 17.8 5.0 35 7.9 N 11 13 6 7 1012.0 1011.1 0.0
15/02:30am 21.5 19.0 5.0 34 8.2 NE 7 9 4 5 1012.1 1011.2 0.0
15/02:00am 22.1 19.4 5.5 34 8.4 N 9 11 5 6 1012.2 1011.3 0.0
15/01:30am 21.7 19.0 5.6 35 8.1 N 9 9 5 5 1012.3 1011.4 0.0
15/01:00am 22.0 19.6 5.4 34 8.3 N 7 9 4 5 1012.3 1011.4 0.0
15/12:30am 23.1 20.4 5.5 32 8.9 NE 9 11 5 6 1012.7 1011.8 0.0
15/12:00am 22.7 20.6 6.5 35 8.3 NE 7 9 4 5 1013.1 1012.2 0.0
 
Date/Time
WST
Temp
°C
App
Temp
°C
Dew
Point
Rel
Hum
%
Delta-T
°C
Wind Press
QNH
hPa
Press
MSL
hPa
Rain
since 9 am
mm
Dir
 
Spd
km/h
Gust
km/h
Spd
kts
Gust
kts
14/11:30pm 22.2 20.0 6.0 35 8.2 NNW 7 11 4 6 1013.3 1012.4 0.0
14/11:00pm 22.8 20.7 5.7 33 8.7 WNW 6 7 3 4 1013.4 1012.5 0.0
14/10:30pm 23.8 22.7 5.2 30 9.4 CALM 0 4 0 2 1013.6 1012.7 0.0
14/10:00pm 24.6 22.3 4.9 28 10.0 NNE 6 9 3 5 1013.8 1012.9 0.0
14/09:30pm 25.2 23.1 3.8 25 10.7 N 4 7 2 4 1013.8 1012.9 0.0
14/09:00pm 26.7 23.1 3.2 22 11.7 NNE 11 15 6 8 1013.7 1012.8 0.0
14/08:30pm 27.6 23.6 2.6 20 12.4 NNE 13 17 7 9 1013.5 1012.6 0.0
14/08:00pm 28.7 24.6 2.1 18 13.2 WSW 13 15 7 8 1013.1 1012.2 0.0
14/07:30pm 29.7 25.2 2.1 17 13.7 W 15 17 8 9 1012.8 1011.9 0.0
14/07:00pm 30.8 26.3 2.1 16 14.4 W 15 17 8 9 1012.5 1011.6 0.0
14/06:30pm 32.0 27.3 1.2 14 15.3 WNW 15 17 8 9 1012.1 1011.2 0.0
14/06:00pm 33.4 29.9 1.3 13 16.2 NNE 9 17 5 9 1011.8 1010.9 0.0
14/05:30pm 35.4 31.2 -0.8 10 17.8 ESE 11 15 6 8 1011.4 1010.5 0.0
14/05:00pm 36.6 32.7 -1.4 9 18.7 ESE 9 15 5 8 1011.2 1010.3 0.0
14/04:30pm 37.1 32.9 -1.0 9 18.9 E 11 17 6 9 1011.1 1010.2 0.0
14/04:00pm 37.2 33.0 -0.9 9 19.0 NNE 11 19 6 10 1010.9 1009.9 0.0
14/03:30pm 37.5 31.2 -0.7 9 19.1 ENE 22 28 12 15 1011.0 1010.1 0.0
14/03:00pm 37.5 33.3 -0.7 9 19.1 ESE 11 22 6 12 1011.0 1010.1 0.0
14/02:30pm 37.9 32.1 -0.4 9 19.3 E 20 35 11 19 1011.0 1010.1 0.0
14/02:00pm 37.4 32.8 -0.8 9 19.1 NNE 13 20 7 11 1011.3 1010.4 0.0
14/01:30pm 37.0 32.4 -1.1 9 18.9 SE 13 24 7 13 1011.6 1010.7 0.0
14/01:00pm 37.7 31.5 -0.6 9 19.2 E 22 28 12 15 1012.1 1011.2 0.0
14/12:30pm 37.4 31.7 -0.8 9 19.1 ENE 19 32 10 17 1012.4 1011.5 0.0
14/12:00pm 36.7 29.6 -1.3 9 18.7 ENE 26 35 14 19 1013.2 1012.3 0.0
14/11:30am 36.7 30.0 -1.3 9 18.7 E 24 39 13 21 1013.6 1012.7 0.0
14/11:16am 36.7 29.2 -1.3 9 18.7 E 28 48 15 26 1013.9 1013.0 0.0
14/11:00am 36.3 28.0 -1.6 9 18.5 ENE 32 39 17 21 1014.1 1013.2 0.0
14/10:30am 36.3 29.5 -1.6 9 18.5 ESE 24 39 13 21 1014.6 1013.7 0.0
14/10:00am 34.6 28.8 -1.4 10 17.5 ESE 19 24 10 13 1014.8 1013.9 0.0
14/09:30am 33.2 27.2 -1.2 11 16.6 SE 20 26 11 14 1015.1 1014.2 0.0
14/09:00am 31.5 24.8 -1.3 12 15.6 SE 24 32 13 17 1015.0 1014.1 0.0
14/08:30am 30.1 23.9 -0.3 14 14.6 SE 22 28 12 15 1015.2 1014.3 0.0
14/08:00am 27.4 23.7 2.5 20 12.3 SE 11 13 6 7 1015.2 1014.3 0.0
14/07:30am 24.8 21.1 2.3 23 10.9 SSE 11 15 6 8 1014.9 1014.0 0.0
14/07:00am 23.3 20.0 4.3 29 9.4 SE 11 15 6 8 1014.8 1013.9 0.0
14/06:30am 21.4 16.9 4.0 32 8.5 SE 17 19 9 10 1014.5 1013.6 0.0
14/06:00am 18.9 15.2 4.3 38 7.0 SSE 13 15 7 8 1014.1 1013.2 0.0

Other Formats:

Comma delimited format used in spreadsheet applications
http://www.bom.gov.au/fwo/IDW60801/IDW60801.99311.axf

JavaScript Object Notation format (JSON) in row-major order
http://www.bom.gov.au/fwo/IDW60801/IDW60801.99311.json